sensor_id;sensor_type;location;lat;lon;timestamp;P1;durP1;ratioP1;P2;durP2;ratioP2
173;SDS011;75;48.784;9.364;2023-02-28T00:01:27;9.97;;;6.33;;
173;SDS011;75;48.784;9.364;2023-02-28T00:04:12;9.20;;;5.97;;
173;SDS011;75;48.784;9.364;2023-02-28T00:06:56;12.10;;;6.33;;
173;SDS011;75;48.784;9.364;2023-02-28T00:09:41;14.83;;;7.07;;
173;SDS011;75;48.784;9.364;2023-02-28T00:12:26;8.47;;;5.73;;
173;SDS011;75;48.784;9.364;2023-02-28T00:15:10;11.17;;;6.20;;
173;SDS011;75;48.784;9.364;2023-02-28T00:17:55;10.83;;;6.50;;
173;SDS011;75;48.784;9.364;2023-02-28T00:20:39;11.03;;;6.20;;
173;SDS011;75;48.784;9.364;2023-02-28T00:23:24;9.70;;;6.13;;
173;SDS011;75;48.784;9.364;2023-02-28T00:26:09;9.43;;;5.53;;
173;SDS011;75;48.784;9.364;2023-02-28T00:28:54;16.20;;;6.50;;
173;SDS011;75;48.784;9.364;2023-02-28T00:31:38;9.40;;;6.40;;
173;SDS011;75;48.784;9.364;2023-02-28T00:34:23;9.93;;;6.53;;
173;SDS011;75;48.784;9.364;2023-02-28T00:37:08;9.97;;;6.43;;
173;SDS011;75;48.784;9.364;2023-02-28T00:39:55;10.33;;;6.50;;
173;SDS011;75;48.784;9.364;2023-02-28T00:42:40;10.40;;;6.10;;
173;SDS011;75;48.784;9.364;2023-02-28T00:45:25;9.00;;;6.87;;
173;SDS011;75;48.784;9.364;2023-02-28T00:48:10;10.73;;;6.27;;
173;SDS011;75;48.784;9.364;2023-02-28T00:50:54;10.87;;;6.53;;
173;SDS011;75;48.784;9.364;2023-02-28T00:53:39;10.30;;;6.40;;
173;SDS011;75;48.784;9.364;2023-02-28T00:56:24;10.80;;;6.10;;
173;SDS011;75;48.784;9.364;2023-02-28T00:59:08;9.23;;;6.70;;
173;SDS011;75;48.784;9.364;2023-02-28T01:01:53;9.67;;;6.70;;
173;SDS011;75;48.784;9.364;2023-02-28T01:04:37;11.30;;;6.73;;
173;SDS011;75;48.784;9.364;2023-02-28T01:07:23;11.47;;;7.10;;
173;SDS011;75;48.784;9.364;2023-02-28T01:10:08;12.40;;;6.83;;
173;SDS011;75;48.784;9.364;2023-02-28T01:12:53;10.47;;;7.30;;
173;SDS011;75;48.784;9.364;2023-02-28T01:15:38;15.33;;;7.20;;
173;SDS011;75;48.784;9.364;2023-02-28T01:18:25;13.63;;;7.17;;
173;SDS011;75;48.784;9.364;2023-02-28T01:21:11;10.20;;;7.10;;
173;SDS011;75;48.784;9.364;2023-02-28T01:23:57;11.60;;;7.37;;
173;SDS011;75;48.784;9.364;2023-02-28T01:26:42;10.70;;;7.27;;
173;SDS011;75;48.784;9.364;2023-02-28T01:29:26;11.63;;;7.03;;
173;SDS011;75;48.784;9.364;2023-02-28T01:32:11;11.80;;;7.73;;
173;SDS011;75;48.784;9.364;2023-02-28T01:34:55;13.33;;;7.50;;
173;SDS011;75;48.784;9.364;2023-02-28T01:37:40;13.87;;;7.73;;
173;SDS011;75;48.784;9.364;2023-02-28T01:40:25;15.63;;;7.87;;
173;SDS011;75;48.784;9.364;2023-02-28T01:43:17;12.30;;;8.37;;
173;SDS011;75;48.784;9.364;2023-02-28T01:46:03;13.20;;;8.03;;
173;SDS011;75;48.784;9.364;2023-02-28T01:48:50;16.17;;;8.50;;
173;SDS011;75;48.784;9.364;2023-02-28T01:51:41;14.00;;;8.60;;
173;SDS011;75;48.784;9.364;2023-02-28T01:54:30;11.67;;;7.97;;
173;SDS011;75;48.784;9.364;2023-02-28T01:57:16;13.10;;;8.43;;
173;SDS011;75;48.784;9.364;2023-02-28T02:00:03;11.90;;;7.80;;
173;SDS011;75;48.784;9.364;2023-02-28T02:02:51;11.80;;;8.23;;
173;SDS011;75;48.784;9.364;2023-02-28T02:05:38;11.03;;;7.83;;
173;SDS011;75;48.784;9.364;2023-02-28T02:08:25;11.00;;;7.70;;
173;SDS011;75;48.784;9.364;2023-02-28T02:11:10;14.90;;;9.00;;
173;SDS011;75;48.784;9.364;2023-02-28T02:17:05;13.80;;;7.90;;
173;SDS011;75;48.784;9.364;2023-02-28T02:20:00;14.10;;;7.83;;
173;SDS011;75;48.784;9.364;2023-02-28T02:35:00;11.77;;;8.40;;
173;SDS011;75;48.784;9.364;2023-02-28T02:37:56;13.80;;;8.77;;
173;SDS011;75;48.784;9.364;2023-02-28T02:43:36;12.63;;;8.60;;
173;SDS011;75;48.784;9.364;2023-02-28T02:46:27;13.73;;;8.37;;
173;SDS011;75;48.784;9.364;2023-02-28T02:49:15;13.40;;;8.20;;
173;SDS011;75;48.784;9.364;2023-02-28T02:52:05;11.60;;;8.77;;
173;SDS011;75;48.784;9.364;2023-02-28T02:54:50;13.80;;;8.53;;
173;SDS011;75;48.784;9.364;2023-02-28T02:57:38;13.30;;;8.07;;
173;SDS011;75;48.784;9.364;2023-02-28T03:00:26;13.07;;;8.00;;
173;SDS011;75;48.784;9.364;2023-02-28T03:03:12;16.87;;;9.00;;
173;SDS011;75;48.784;9.364;2023-02-28T03:05:59;14.90;;;8.80;;
173;SDS011;75;48.784;9.364;2023-02-28T03:08:44;13.30;;;8.73;;
173;SDS011;75;48.784;9.364;2023-02-28T03:11:28;12.40;;;9.33;;
173;SDS011;75;48.784;9.364;2023-02-28T03:14:17;14.30;;;9.60;;
173;SDS011;75;48.784;9.364;2023-02-28T03:17:21;12.20;;;8.90;;
173;SDS011;75;48.784;9.364;2023-02-28T03:23:13;11.90;;;9.10;;
173;SDS011;75;48.784;9.364;2023-02-28T03:26:02;15.83;;;8.77;;
173;SDS011;75;48.784;9.364;2023-02-28T03:29:02;16.13;;;9.20;;
173;SDS011;75;48.784;9.364;2023-02-28T03:31:54;13.20;;;9.00;;
173;SDS011;75;48.784;9.364;2023-02-28T03:34:42;12.63;;;9.10;;
173;SDS011;75;48.784;9.364;2023-02-28T03:37:31;16.90;;;9.77;;
173;SDS011;75;48.784;9.364;2023-02-28T03:40:20;13.77;;;9.40;;
173;SDS011;75;48.784;9.364;2023-02-28T03:43:08;12.63;;;9.30;;
173;SDS011;75;48.784;9.364;2023-02-28T03:45:55;15.67;;;10.00;;
173;SDS011;75;48.784;9.364;2023-02-28T03:48:57;14.97;;;9.67;;
173;SDS011;75;48.784;9.364;2023-02-28T03:51:46;15.13;;;9.80;;
173;SDS011;75;48.784;9.364;2023-02-28T03:54:32;14.70;;;9.57;;
173;SDS011;75;48.784;9.364;2023-02-28T03:57:40;13.90;;;9.43;;
173;SDS011;75;48.784;9.364;2023-02-28T04:00:29;18.73;;;10.13;;
173;SDS011;75;48.784;9.364;2023-02-28T04:03:15;12.80;;;8.93;;
173;SDS011;75;48.784;9.364;2023-02-28T04:05:59;13.93;;;9.50;;
173;SDS011;75;48.784;9.364;2023-02-28T04:08:44;13.70;;;9.73;;
173;SDS011;75;48.784;9.364;2023-02-28T04:11:33;14.00;;;9.30;;
173;SDS011;75;48.784;9.364;2023-02-28T04:14:18;14.97;;;10.33;;
173;SDS011;75;48.784;9.364;2023-02-28T04:17:03;14.60;;;9.90;;
173;SDS011;75;48.784;9.364;2023-02-28T04:19:48;14.77;;;9.60;;
173;SDS011;75;48.784;9.364;2023-02-28T04:22:33;13.40;;;9.37;;
173;SDS011;75;48.784;9.364;2023-02-28T04:25:18;13.27;;;9.23;;
173;SDS011;75;48.784;9.364;2023-02-28T04:28:02;15.50;;;9.83;;
173;SDS011;75;48.784;9.364;2023-02-28T04:30:47;15.30;;;10.33;;
173;SDS011;75;48.784;9.364;2023-02-28T04:33:32;13.20;;;9.57;;
173;SDS011;75;48.784;9.364;2023-02-28T04:36:17;16.37;;;10.30;;
173;SDS011;75;48.784;9.364;2023-02-28T04:39:02;15.20;;;9.73;;
173;SDS011;75;48.784;9.364;2023-02-28T04:41:47;15.43;;;10.60;;
173;SDS011;75;48.784;9.364;2023-02-28T04:44:32;16.73;;;10.20;;
173;SDS011;75;48.784;9.364;2023-02-28T04:47:17;14.33;;;10.37;;
173;SDS011;75;48.784;9.364;2023-02-28T04:50:02;18.40;;;9.83;;
173;SDS011;75;48.784;9.364;2023-02-28T04:52:47;15.33;;;10.20;;
173;SDS011;75;48.784;9.364;2023-02-28T04:55:31;14.20;;;9.73;;
173;SDS011;75;48.784;9.364;2023-02-28T04:58:16;14.50;;;10.20;;
173;SDS011;75;48.784;9.364;2023-02-28T05:01:02;15.87;;;10.90;;
173;SDS011;75;48.784;9.364;2023-02-28T05:03:47;16.27;;;10.07;;
173;SDS011;75;48.784;9.364;2023-02-28T05:06:32;16.43;;;10.90;;
173;SDS011;75;48.784;9.364;2023-02-28T05:09:17;18.30;;;11.13;;
173;SDS011;75;48.784;9.364;2023-02-28T05:12:02;17.00;;;10.27;;
173;SDS011;75;48.784;9.364;2023-02-28T05:14:46;14.40;;;10.00;;
173;SDS011;75;48.784;9.364;2023-02-28T05:17:31;16.17;;;10.60;;
173;SDS011;75;48.784;9.364;2023-02-28T05:20:15;16.90;;;10.70;;
173;SDS011;75;48.784;9.364;2023-02-28T05:23:01;13.97;;;9.70;;
173;SDS011;75;48.784;9.364;2023-02-28T05:25:46;15.13;;;10.50;;
173;SDS011;75;48.784;9.364;2023-02-28T05:28:31;14.70;;;10.20;;
173;SDS011;75;48.784;9.364;2023-02-28T05:31:16;17.43;;;11.30;;
173;SDS011;75;48.784;9.364;2023-02-28T05:34:01;14.90;;;10.30;;
173;SDS011;75;48.784;9.364;2023-02-28T05:36:48;16.57;;;11.10;;
173;SDS011;75;48.784;9.364;2023-02-28T05:39:32;16.27;;;10.57;;
173;SDS011;75;48.784;9.364;2023-02-28T05:42:17;16.40;;;10.70;;
173;SDS011;75;48.784;9.364;2023-02-28T05:45:02;17.03;;;10.53;;
173;SDS011;75;48.784;9.364;2023-02-28T05:47:47;15.97;;;10.40;;
173;SDS011;75;48.784;9.364;2023-02-28T05:50:31;19.53;;;12.73;;
173;SDS011;75;48.784;9.364;2023-02-28T05:53:16;16.90;;;11.87;;
173;SDS011;75;48.784;9.364;2023-02-28T05:56:00;16.57;;;11.07;;
173;SDS011;75;48.784;9.364;2023-02-28T05:58:45;17.20;;;11.90;;
173;SDS011;75;48.784;9.364;2023-02-28T06:01:34;17.80;;;11.00;;
173;SDS011;75;48.784;9.364;2023-02-28T06:04:20;18.77;;;12.20;;
173;SDS011;75;48.784;9.364;2023-02-28T06:07:05;18.07;;;11.57;;
173;SDS011;75;48.784;9.364;2023-02-28T06:09:50;20.17;;;12.10;;
173;SDS011;75;48.784;9.364;2023-02-28T06:12:35;18.00;;;12.37;;
173;SDS011;75;48.784;9.364;2023-02-28T06:15:19;19.17;;;12.53;;
173;SDS011;75;48.784;9.364;2023-02-28T06:18:04;17.53;;;12.50;;
173;SDS011;75;48.784;9.364;2023-02-28T06:20:53;17.73;;;12.50;;
173;SDS011;75;48.784;9.364;2023-02-28T06:23:38;16.83;;;11.67;;
173;SDS011;75;48.784;9.364;2023-02-28T06:26:23;18.50;;;12.13;;
173;SDS011;75;48.784;9.364;2023-02-28T06:29:08;18.87;;;12.30;;
173;SDS011;75;48.784;9.364;2023-02-28T06:31:52;19.93;;;12.90;;
173;SDS011;75;48.784;9.364;2023-02-28T06:34:37;19.37;;;12.77;;
173;SDS011;75;48.784;9.364;2023-02-28T06:37:22;19.63;;;13.20;;
173;SDS011;75;48.784;9.364;2023-02-28T06:40:09;16.80;;;11.80;;
173;SDS011;75;48.784;9.364;2023-02-28T06:42:54;18.53;;;12.00;;
173;SDS011;75;48.784;9.364;2023-02-28T06:45:42;21.50;;;13.27;;
173;SDS011;75;48.784;9.364;2023-02-28T06:48:28;19.90;;;13.03;;
173;SDS011;75;48.784;9.364;2023-02-28T06:51:13;20.50;;;12.83;;
173;SDS011;75;48.784;9.364;2023-02-28T06:53:59;20.27;;;13.17;;
173;SDS011;75;48.784;9.364;2023-02-28T06:56:44;22.80;;;13.40;;
173;SDS011;75;48.784;9.364;2023-02-28T06:59:28;19.40;;;13.27;;
173;SDS011;75;48.784;9.364;2023-02-28T07:02:13;15.17;;;9.50;;
173;SDS011;75;48.784;9.364;2023-02-28T07:04:58;20.50;;;13.30;;
173;SDS011;75;48.784;9.364;2023-02-28T07:07:42;22.53;;;13.70;;
173;SDS011;75;48.784;9.364;2023-02-28T07:10:30;20.37;;;13.10;;
173;SDS011;75;48.784;9.364;2023-02-28T07:13:15;21.90;;;14.20;;
173;SDS011;75;48.784;9.364;2023-02-28T07:16:01;21.10;;;13.73;;
173;SDS011;75;48.784;9.364;2023-02-28T07:18:47;22.13;;;14.20;;
173;SDS011;75;48.784;9.364;2023-02-28T07:21:31;20.77;;;13.20;;
173;SDS011;75;48.784;9.364;2023-02-28T07:24:16;18.13;;;12.30;;
173;SDS011;75;48.784;9.364;2023-02-28T07:27:01;21.80;;;13.97;;
173;SDS011;75;48.784;9.364;2023-02-28T07:29:46;19.57;;;13.43;;
173;SDS011;75;48.784;9.364;2023-02-28T07:32:31;20.93;;;13.20;;
173;SDS011;75;48.784;9.364;2023-02-28T07:35:16;21.90;;;14.20;;
173;SDS011;75;48.784;9.364;2023-02-28T07:38:01;19.77;;;13.30;;
173;SDS011;75;48.784;9.364;2023-02-28T07:40:46;19.33;;;13.40;;
173;SDS011;75;48.784;9.364;2023-02-28T07:43:31;20.27;;;13.40;;
173;SDS011;75;48.784;9.364;2023-02-28T07:46:16;22.80;;;14.90;;
173;SDS011;75;48.784;9.364;2023-02-28T07:49:01;22.93;;;13.93;;
173;SDS011;75;48.784;9.364;2023-02-28T07:51:46;22.47;;;14.53;;
173;SDS011;75;48.784;9.364;2023-02-28T07:54:31;19.13;;;13.70;;
173;SDS011;75;48.784;9.364;2023-02-28T07:57:16;20.47;;;13.30;;
173;SDS011;75;48.784;9.364;2023-02-28T08:00:03;19.33;;;13.27;;
173;SDS011;75;48.784;9.364;2023-02-28T08:02:49;21.30;;;13.40;;
173;SDS011;75;48.784;9.364;2023-02-28T08:05:37;20.97;;;14.23;;
173;SDS011;75;48.784;9.364;2023-02-28T08:08:22;21.13;;;13.70;;
173;SDS011;75;48.784;9.364;2023-02-28T08:11:07;24.60;;;13.90;;
173;SDS011;75;48.784;9.364;2023-02-28T08:13:52;20.07;;;13.67;;
173;SDS011;75;48.784;9.364;2023-02-28T08:16:36;18.90;;;12.50;;
173;SDS011;75;48.784;9.364;2023-02-28T08:19:22;20.60;;;13.70;;
173;SDS011;75;48.784;9.364;2023-02-28T08:22:07;22.60;;;14.00;;
173;SDS011;75;48.784;9.364;2023-02-28T08:24:51;20.13;;;13.53;;
173;SDS011;75;48.784;9.364;2023-02-28T08:27:36;21.00;;;13.40;;
173;SDS011;75;48.784;9.364;2023-02-28T08:30:21;24.90;;;14.17;;
173;SDS011;75;48.784;9.364;2023-02-28T08:33:05;22.10;;;14.07;;
173;SDS011;75;48.784;9.364;2023-02-28T08:35:54;21.70;;;14.60;;
173;SDS011;75;48.784;9.364;2023-02-28T08:38:38;21.90;;;14.43;;
173;SDS011;75;48.784;9.364;2023-02-28T08:41:23;23.07;;;15.17;;
173;SDS011;75;48.784;9.364;2023-02-28T08:44:08;22.07;;;15.10;;
173;SDS011;75;48.784;9.364;2023-02-28T08:46:52;25.47;;;16.67;;
173;SDS011;75;48.784;9.364;2023-02-28T08:49:37;20.07;;;13.63;;
173;SDS011;75;48.784;9.364;2023-02-28T08:52:21;20.20;;;14.13;;
173;SDS011;75;48.784;9.364;2023-02-28T08:55:06;22.83;;;14.20;;
173;SDS011;75;48.784;9.364;2023-02-28T08:57:52;21.30;;;13.90;;
173;SDS011;75;48.784;9.364;2023-02-28T09:00:38;22.30;;;14.07;;
173;SDS011;75;48.784;9.364;2023-02-28T09:03:23;25.50;;;14.70;;
173;SDS011;75;48.784;9.364;2023-02-28T09:06:08;21.20;;;14.60;;
173;SDS011;75;48.784;9.364;2023-02-28T09:08:55;22.47;;;14.23;;
173;SDS011;75;48.784;9.364;2023-02-28T09:11:42;22.83;;;13.07;;
173;SDS011;75;48.784;9.364;2023-02-28T09:14:26;20.10;;;13.37;;
173;SDS011;75;48.784;9.364;2023-02-28T09:17:11;21.03;;;13.93;;
173;SDS011;75;48.784;9.364;2023-02-28T09:19:56;22.17;;;14.90;;
173;SDS011;75;48.784;9.364;2023-02-28T09:22:40;22.30;;;14.93;;
173;SDS011;75;48.784;9.364;2023-02-28T09:25:25;22.00;;;13.90;;
173;SDS011;75;48.784;9.364;2023-02-28T09:28:10;21.37;;;14.00;;
173;SDS011;75;48.784;9.364;2023-02-28T09:30:54;22.60;;;14.87;;
173;SDS011;75;48.784;9.364;2023-02-28T09:33:41;24.20;;;14.40;;
173;SDS011;75;48.784;9.364;2023-02-28T09:36:26;21.97;;;14.40;;
173;SDS011;75;48.784;9.364;2023-02-28T09:39:12;20.73;;;14.13;;
173;SDS011;75;48.784;9.364;2023-02-28T09:41:59;21.67;;;14.80;;
173;SDS011;75;48.784;9.364;2023-02-28T09:44:44;23.20;;;14.70;;
173;SDS011;75;48.784;9.364;2023-02-28T09:47:34;21.10;;;14.13;;
173;SDS011;75;48.784;9.364;2023-02-28T09:50:29;23.67;;;15.23;;
173;SDS011;75;48.784;9.364;2023-02-28T09:53:21;22.17;;;14.17;;
173;SDS011;75;48.784;9.364;2023-02-28T09:56:07;24.67;;;15.00;;
173;SDS011;75;48.784;9.364;2023-02-28T09:59:00;22.37;;;15.10;;
173;SDS011;75;48.784;9.364;2023-02-28T10:04:51;23.70;;;15.97;;
173;SDS011;75;48.784;9.364;2023-02-28T10:10:37;18.97;;;13.30;;
173;SDS011;75;48.784;9.364;2023-02-28T10:16:10;24.90;;;15.50;;
173;SDS011;75;48.784;9.364;2023-02-28T10:19:03;23.90;;;15.30;;
173;SDS011;75;48.784;9.364;2023-02-28T10:21:56;24.33;;;15.43;;
173;SDS011;75;48.784;9.364;2023-02-28T10:24:42;24.57;;;15.50;;
173;SDS011;75;48.784;9.364;2023-02-28T10:27:29;24.73;;;14.70;;
173;SDS011;75;48.784;9.364;2023-02-28T10:30:14;22.03;;;14.17;;
173;SDS011;75;48.784;9.364;2023-02-28T10:32:59;32.40;;;16.27;;
173;SDS011;75;48.784;9.364;2023-02-28T10:35:43;21.30;;;14.40;;
173;SDS011;75;48.784;9.364;2023-02-28T10:38:32;21.53;;;14.60;;
173;SDS011;75;48.784;9.364;2023-02-28T10:41:27;24.33;;;15.07;;
173;SDS011;75;48.784;9.364;2023-02-28T10:46:57;25.83;;;15.53;;
173;SDS011;75;48.784;9.364;2023-02-28T10:49:49;21.10;;;15.10;;
173;SDS011;75;48.784;9.364;2023-02-28T10:52:37;21.83;;;14.27;;
173;SDS011;75;48.784;9.364;2023-02-28T10:55:23;23.13;;;15.77;;
173;SDS011;75;48.784;9.364;2023-02-28T10:58:22;22.13;;;14.80;;
173;SDS011;75;48.784;9.364;2023-02-28T11:01:12;21.43;;;14.43;;
173;SDS011;75;48.784;9.364;2023-02-28T11:03:57;24.10;;;15.77;;
173;SDS011;75;48.784;9.364;2023-02-28T11:06:42;29.80;;;19.13;;
173;SDS011;75;48.784;9.364;2023-02-28T11:09:28;24.83;;;16.20;;
173;SDS011;75;48.784;9.364;2023-02-28T11:12:57;24.70;;;15.50;;
173;SDS011;75;48.784;9.364;2023-02-28T11:15:24;26.40;;;16.13;;
173;SDS011;75;48.784;9.364;2023-02-28T11:18:24;25.30;;;16.00;;
173;SDS011;75;48.784;9.364;2023-02-28T11:21:09;22.10;;;14.47;;
173;SDS011;75;48.784;9.364;2023-02-28T11:24:02;25.73;;;15.60;;
173;SDS011;75;48.784;9.364;2023-02-28T11:26:48;20.90;;;14.10;;
173;SDS011;75;48.784;9.364;2023-02-28T11:29:33;23.50;;;14.70;;
173;SDS011;75;48.784;9.364;2023-02-28T11:32:22;25.77;;;15.63;;
173;SDS011;75;48.784;9.364;2023-02-28T11:37:55;25.33;;;16.57;;
173;SDS011;75;48.784;9.364;2023-02-28T11:40:43;23.23;;;15.50;;
173;SDS011;75;48.784;9.364;2023-02-28T11:43:38;22.33;;;15.27;;
173;SDS011;75;48.784;9.364;2023-02-28T11:46:33;24.47;;;15.40;;
173;SDS011;75;48.784;9.364;2023-02-28T11:52:29;23.73;;;16.33;;
173;SDS011;75;48.784;9.364;2023-02-28T11:59:00;24.43;;;15.57;;
173;SDS011;75;48.784;9.364;2023-02-28T12:07:55;22.23;;;15.13;;
173;SDS011;75;48.784;9.364;2023-02-28T12:13:41;24.40;;;16.00;;
173;SDS011;75;48.784;9.364;2023-02-28T12:25:22;20.63;;;15.00;;
173;SDS011;75;48.784;9.364;2023-02-28T12:28:09;24.43;;;15.80;;
173;SDS011;75;48.784;9.364;2023-02-28T12:30:57;22.53;;;15.80;;
173;SDS011;75;48.784;9.364;2023-02-28T12:33:45;23.03;;;15.40;;
173;SDS011;75;48.784;9.364;2023-02-28T12:36:30;24.37;;;16.87;;
173;SDS011;75;48.784;9.364;2023-02-28T12:39:20;22.13;;;15.57;;
173;SDS011;75;48.784;9.364;2023-02-28T12:42:17;23.83;;;14.83;;
173;SDS011;75;48.784;9.364;2023-02-28T12:45:12;23.50;;;15.20;;
173;SDS011;75;48.784;9.364;2023-02-28T12:48:00;22.97;;;14.90;;
173;SDS011;75;48.784;9.364;2023-02-28T12:50:47;23.90;;;15.30;;
173;SDS011;75;48.784;9.364;2023-02-28T12:53:35;23.93;;;15.47;;
173;SDS011;75;48.784;9.364;2023-02-28T13:08:11;21.80;;;14.57;;
173;SDS011;75;48.784;9.364;2023-02-28T13:11:02;23.93;;;15.80;;
173;SDS011;75;48.784;9.364;2023-02-28T13:13:47;23.27;;;14.60;;
173;SDS011;75;48.784;9.364;2023-02-28T13:19:36;25.20;;;15.40;;
173;SDS011;75;48.784;9.364;2023-02-28T13:28:13;23.90;;;14.10;;
173;SDS011;75;48.784;9.364;2023-02-28T13:31:18;23.30;;;14.90;;
173;SDS011;75;48.784;9.364;2023-02-28T13:34:12;23.80;;;14.90;;
173;SDS011;75;48.784;9.364;2023-02-28T13:42:55;23.70;;;13.83;;
173;SDS011;75;48.784;9.364;2023-02-28T13:45:40;21.30;;;14.40;;
173;SDS011;75;48.784;9.364;2023-02-28T13:48:45;24.67;;;16.40;;
173;SDS011;75;48.784;9.364;2023-02-28T13:54:40;24.27;;;15.03;;
173;SDS011;75;48.784;9.364;2023-02-28T13:57:32;20.70;;;14.50;;
173;SDS011;75;48.784;9.364;2023-02-28T14:00:55;21.10;;;13.87;;
173;SDS011;75;48.784;9.364;2023-02-28T14:03:34;20.53;;;14.40;;
173;SDS011;75;48.784;9.364;2023-02-28T14:06:30;22.20;;;13.90;;
173;SDS011;75;48.784;9.364;2023-02-28T14:09:35;21.23;;;14.80;;
173;SDS011;75;48.784;9.364;2023-02-28T14:18:24;23.07;;;15.00;;
173;SDS011;75;48.784;9.364;2023-02-28T14:21:11;23.30;;;15.30;;
173;SDS011;75;48.784;9.364;2023-02-28T14:24:21;23.17;;;13.60;;
173;SDS011;75;48.784;9.364;2023-02-28T14:38:56;20.80;;;14.17;;
173;SDS011;75;48.784;9.364;2023-02-28T14:41:42;21.30;;;14.00;;
173;SDS011;75;48.784;9.364;2023-02-28T14:44:27;22.40;;;13.97;;
173;SDS011;75;48.784;9.364;2023-02-28T14:47:14;19.73;;;13.83;;
173;SDS011;75;48.784;9.364;2023-02-28T14:50:00;22.30;;;14.43;;
173;SDS011;75;48.784;9.364;2023-02-28T14:52:47;22.13;;;14.77;;
173;SDS011;75;48.784;9.364;2023-02-28T14:55:34;23.40;;;14.17;;
173;SDS011;75;48.784;9.364;2023-02-28T14:58:30;21.70;;;13.83;;
173;SDS011;75;48.784;9.364;2023-02-28T15:01:18;21.63;;;14.53;;
173;SDS011;75;48.784;9.364;2023-02-28T15:04:05;23.23;;;14.77;;
173;SDS011;75;48.784;9.364;2023-02-28T15:13:10;21.83;;;14.00;;
173;SDS011;75;48.784;9.364;2023-02-28T15:15:56;21.87;;;14.70;;
173;SDS011;75;48.784;9.364;2023-02-28T15:18:48;24.67;;;14.60;;
173;SDS011;75;48.784;9.364;2023-02-28T15:21:34;23.20;;;14.77;;
173;SDS011;75;48.784;9.364;2023-02-28T15:24:21;22.33;;;13.70;;
173;SDS011;75;48.784;9.364;2023-02-28T15:27:14;19.27;;;13.83;;
173;SDS011;75;48.784;9.364;2023-02-28T15:30:04;23.73;;;15.27;;
173;SDS011;75;48.784;9.364;2023-02-28T15:33:35;21.73;;;14.97;;
173;SDS011;75;48.784;9.364;2023-02-28T15:36:14;24.20;;;15.30;;
173;SDS011;75;48.784;9.364;2023-02-28T15:39:01;21.70;;;14.83;;
173;SDS011;75;48.784;9.364;2023-02-28T15:41:46;23.20;;;14.67;;
173;SDS011;75;48.784;9.364;2023-02-28T15:44:33;20.60;;;14.60;;
173;SDS011;75;48.784;9.364;2023-02-28T15:47:19;24.53;;;15.00;;
173;SDS011;75;48.784;9.364;2023-02-28T15:50:08;21.77;;;14.73;;
173;SDS011;75;48.784;9.364;2023-02-28T15:52:55;22.43;;;14.30;;
173;SDS011;75;48.784;9.364;2023-02-28T15:55:39;23.43;;;15.20;;
173;SDS011;75;48.784;9.364;2023-02-28T15:58:25;23.27;;;15.10;;
173;SDS011;75;48.784;9.364;2023-02-28T16:01:18;23.13;;;15.03;;
173;SDS011;75;48.784;9.364;2023-02-28T16:04:04;23.03;;;15.30;;
173;SDS011;75;48.784;9.364;2023-02-28T16:07:00;26.83;;;15.40;;
173;SDS011;75;48.784;9.364;2023-02-28T16:09:45;26.57;;;15.70;;
173;SDS011;75;48.784;9.364;2023-02-28T16:12:31;23.10;;;15.20;;
173;SDS011;75;48.784;9.364;2023-02-28T16:15:24;23.53;;;15.23;;
173;SDS011;75;48.784;9.364;2023-02-28T16:18:10;25.40;;;16.70;;
173;SDS011;75;48.784;9.364;2023-02-28T16:20:55;24.30;;;15.80;;
173;SDS011;75;48.784;9.364;2023-02-28T16:23:40;24.37;;;16.70;;
173;SDS011;75;48.784;9.364;2023-02-28T16:26:25;24.97;;;16.13;;
173;SDS011;75;48.784;9.364;2023-02-28T16:29:13;23.83;;;15.77;;
173;SDS011;75;48.784;9.364;2023-02-28T16:32:01;24.73;;;16.40;;
173;SDS011;75;48.784;9.364;2023-02-28T16:34:46;28.47;;;16.77;;
173;SDS011;75;48.784;9.364;2023-02-28T16:37:31;25.00;;;16.50;;
173;SDS011;75;48.784;9.364;2023-02-28T16:40:17;26.80;;;16.20;;
173;SDS011;75;48.784;9.364;2023-02-28T16:43:07;27.23;;;16.93;;
173;SDS011;75;48.784;9.364;2023-02-28T16:45:57;28.63;;;16.93;;
173;SDS011;75;48.784;9.364;2023-02-28T16:48:46;28.27;;;17.87;;
173;SDS011;75;48.784;9.364;2023-02-28T16:51:34;26.40;;;15.73;;
173;SDS011;75;48.784;9.364;2023-02-28T16:54:19;25.43;;;16.90;;
173;SDS011;75;48.784;9.364;2023-02-28T16:57:04;28.60;;;17.07;;
173;SDS011;75;48.784;9.364;2023-02-28T16:59:49;39.00;;;22.20;;
173;SDS011;75;48.784;9.364;2023-02-28T17:02:37;30.40;;;19.23;;
173;SDS011;75;48.784;9.364;2023-02-28T17:05:22;27.40;;;17.17;;
173;SDS011;75;48.784;9.364;2023-02-28T17:08:08;28.77;;;15.63;;
173;SDS011;75;48.784;9.364;2023-02-28T17:10:53;29.13;;;18.23;;
173;SDS011;75;48.784;9.364;2023-02-28T17:13:37;27.10;;;16.60;;
173;SDS011;75;48.784;9.364;2023-02-28T17:16:24;26.60;;;16.07;;
173;SDS011;75;48.784;9.364;2023-02-28T17:19:11;29.50;;;18.73;;
173;SDS011;75;48.784;9.364;2023-02-28T17:21:56;32.40;;;20.47;;
173;SDS011;75;48.784;9.364;2023-02-28T17:24:41;31.40;;;19.57;;
173;SDS011;75;48.784;9.364;2023-02-28T17:27:26;30.67;;;19.70;;
173;SDS011;75;48.784;9.364;2023-02-28T17:32:56;25.27;;;16.50;;
173;SDS011;75;48.784;9.364;2023-02-28T17:35:41;27.83;;;17.60;;
173;SDS011;75;48.784;9.364;2023-02-28T17:38:26;27.00;;;17.50;;
173;SDS011;75;48.784;9.364;2023-02-28T17:41:10;29.77;;;18.63;;
173;SDS011;75;48.784;9.364;2023-02-28T17:43:56;31.43;;;18.20;;
173;SDS011;75;48.784;9.364;2023-02-28T17:46:41;28.10;;;17.87;;
173;SDS011;75;48.784;9.364;2023-02-28T17:49:26;27.40;;;16.60;;
173;SDS011;75;48.784;9.364;2023-02-28T17:52:11;38.70;;;22.10;;
173;SDS011;75;48.784;9.364;2023-02-28T17:54:55;46.20;;;27.70;;
173;SDS011;75;48.784;9.364;2023-02-28T17:57:40;36.00;;;22.33;;
173;SDS011;75;48.784;9.364;2023-02-28T18:00:25;40.93;;;25.63;;
173;SDS011;75;48.784;9.364;2023-02-28T18:03:10;50.43;;;29.10;;
173;SDS011;75;48.784;9.364;2023-02-28T18:05:56;45.93;;;27.47;;
173;SDS011;75;48.784;9.364;2023-02-28T18:08:41;42.90;;;26.17;;
173;SDS011;75;48.784;9.364;2023-02-28T18:11:26;51.00;;;31.03;;
173;SDS011;75;48.784;9.364;2023-02-28T18:14:26;51.40;;;32.10;;
173;SDS011;75;48.784;9.364;2023-02-28T18:17:11;41.57;;;26.30;;
173;SDS011;75;48.784;9.364;2023-02-28T18:19:56;50.87;;;30.53;;
173;SDS011;75;48.784;9.364;2023-02-28T18:22:41;52.83;;;30.93;;
173;SDS011;75;48.784;9.364;2023-02-28T18:25:26;64.10;;;33.97;;
173;SDS011;75;48.784;9.364;2023-02-28T18:28:11;53.27;;;30.40;;
173;SDS011;75;48.784;9.364;2023-02-28T18:30:55;90.57;;;43.53;;
173;SDS011;75;48.784;9.364;2023-02-28T18:33:40;71.27;;;38.07;;
173;SDS011;75;48.784;9.364;2023-02-28T18:36:25;73.83;;;36.43;;
173;SDS011;75;48.784;9.364;2023-02-28T18:39:10;63.33;;;34.30;;
173;SDS011;75;48.784;9.364;2023-02-28T18:41:55;57.33;;;32.13;;
173;SDS011;75;48.784;9.364;2023-02-28T18:44:40;55.47;;;32.80;;
173;SDS011;75;48.784;9.364;2023-02-28T18:47:24;59.00;;;33.30;;
173;SDS011;75;48.784;9.364;2023-02-28T18:50:09;58.10;;;35.33;;
173;SDS011;75;48.784;9.364;2023-02-28T18:52:54;54.80;;;35.60;;
173;SDS011;75;48.784;9.364;2023-02-28T18:55:41;65.60;;;35.63;;
173;SDS011;75;48.784;9.364;2023-02-28T18:58:26;53.67;;;32.03;;
173;SDS011;75;48.784;9.364;2023-02-28T19:01:13;49.67;;;28.60;;
173;SDS011;75;48.784;9.364;2023-02-28T19:03:58;48.40;;;28.87;;
173;SDS011;75;48.784;9.364;2023-02-28T19:06:44;46.43;;;28.27;;
173;SDS011;75;48.784;9.364;2023-02-28T19:09:28;46.17;;;28.60;;
173;SDS011;75;48.784;9.364;2023-02-28T19:12:13;38.93;;;25.50;;
173;SDS011;75;48.784;9.364;2023-02-28T19:15:00;47.93;;;31.17;;
173;SDS011;75;48.784;9.364;2023-02-28T19:17:44;44.80;;;28.03;;
173;SDS011;75;48.784;9.364;2023-02-28T19:20:29;45.30;;;27.23;;
173;SDS011;75;48.784;9.364;2023-02-28T19:23:14;42.93;;;26.77;;
173;SDS011;75;48.784;9.364;2023-02-28T19:25:58;44.83;;;28.00;;
173;SDS011;75;48.784;9.364;2023-02-28T19:28:43;51.90;;;29.30;;
173;SDS011;75;48.784;9.364;2023-02-28T19:31:28;48.77;;;30.50;;
173;SDS011;75;48.784;9.364;2023-02-28T19:34:12;45.10;;;28.47;;
173;SDS011;75;48.784;9.364;2023-02-28T19:36:57;49.67;;;28.67;;